Time;durP1;ratioP1;P1;durP2;ratioP2;P2;SDS_P1;SDS_P2;PMS_P1;PMS_P2;Temp;Humidity;BMP_temperature;BMP_pressure;BME280_temperature;BME280_humidity;BME280_pressure;Samples;Min_cycle;Max_cycle;Signal;HPM_P1;HPM_P2
2023/07/01 00:00:28;;;;;;;8.95;2.40;;;20.90;99.90;;;;;;5021174;28;20029;-65
2023/07/01 00:02:54;;;;;;;3.50;1.80;;;20.90;99.90;;;;;;5020740;28;20026;-67
2023/07/01 00:05:20;;;;;;;7.72;2.53;;;20.90;99.90;;;;;;5020647;28;20041;-67
2023/07/01 00:07:47;;;;;;;5.15;2.15;;;20.90;99.90;;;;;;5018423;28;20026;-69
2023/07/01 00:10:13;;;;;;;8.35;2.33;;;20.90;99.90;;;;;;5019291;28;20040;-65
2023/07/01 00:12:38;;;;;;;6.68;2.08;;;20.90;99.90;;;;;;5017434;28;20022;-67
2023/07/01 00:15:04;;;;;;;5.75;2.08;;;20.90;99.90;;;;;;5019015;28;20029;-70
2023/07/01 00:17:30;;;;;;;5.00;2.10;;;20.90;99.90;;;;;;5017753;28;20022;-66
2023/07/01 00:19:56;;;;;;;3.72;2.22;;;20.90;99.90;;;;;;5017087;28;20026;-66
2023/07/01 00:22:21;;;;;;;3.67;2.05;;;20.90;99.90;;;;;;5018946;28;20037;-65
2023/07/01 00:24:47;;;;;;;7.60;2.00;;;20.90;99.90;;;;;;5018573;28;20029;-66
2023/07/01 00:27:13;;;;;;;5.55;2.00;;;20.90;99.90;;;;;;5019750;28;20026;-70
2023/07/01 00:29:38;;;;;;;4.90;2.30;;;20.90;99.90;;;;;;5017532;28;20033;-66
2023/07/01 00:32:04;;;;;;;5.07;2.05;;;20.90;99.90;;;;;;5018066;28;20037;-65
2023/07/01 00:34:30;;;;;;;6.70;2.30;;;21.00;99.90;;;;;;5019311;28;20056;-66
2023/07/01 00:36:56;;;;;;;4.22;1.98;;;21.00;99.90;;;;;;5018289;28;20102;-69
2023/07/01 00:39:21;;;;;;;5.45;2.20;;;20.90;99.90;;;;;;5021496;28;20469;-65
2023/07/01 00:41:54;;;;;;;3.33;2.10;;;20.80;99.90;;;;;;5019806;28;20068;-65
2023/07/01 00:44:20;;;;;;;6.85;1.85;;;20.70;99.90;;;;;;5021892;28;20028;-68
2023/07/01 00:46:46;;;;;;;7.90;2.22;;;20.70;99.90;;;;;;5017389;28;20053;-66
2023/07/01 00:49:12;;;;;;;7.53;2.45;;;20.60;99.90;;;;;;5020285;28;20474;-65
2023/07/01 00:51:38;;;;;;;6.93;2.20;;;20.70;99.90;;;;;;5017787;28;20097;-65
2023/07/01 00:54:04;;;;;;;6.05;2.42;;;20.70;99.90;;;;;;5017491;28;20106;-69
2023/07/01 00:56:30;;;;;;;5.10;2.20;;;20.60;99.90;;;;;;5018818;28;20030;-67
2023/07/01 00:58:56;;;;;;;5.70;2.22;;;20.60;99.90;;;;;;5020533;28;20470;-67
2023/07/01 01:01:29;;;;;;;6.35;2.47;;;20.70;99.90;;;;;;5018095;28;20028;-65
2023/07/01 01:04:17;;;;;;;8.50;2.63;;;20.50;99.90;;;;;;5021466;28;20025;-65
2023/07/01 01:06:54;;;;;;;6.00;2.15;;;20.50;99.90;;;;;;5014615;28;20033;-65
2023/07/01 01:09:45;;;;;;;6.97;2.10;;;20.40;99.90;;;;;;5020778;28;20041;-72
2023/07/01 01:12:13;;;;;;;5.55;2.03;;;20.50;99.90;;;;;;5018159;28;20493;-67
2023/07/01 01:14:42;;;;;;;3.13;1.98;;;20.40;99.90;;;;;;5018889;28;20053;-65
2023/07/01 01:17:13;;;;;;;4.78;2.10;;;20.40;99.90;;;;;;5016630;28;20082;-65
2023/07/01 01:19:44;;;;;;;5.40;2.20;;;20.50;99.90;;;;;;5020108;28;20021;-74
2023/07/01 01:22:30;;;;;;;8.73;2.72;;;20.60;99.90;;;;;;5017856;28;20018;-69
2023/07/01 01:24:58;;;;;;;5.03;2.38;;;20.50;99.90;;;;;;5010315;28;20033;-69
2023/07/01 01:27:27;;;;;;;5.63;2.45;;;20.40;99.90;;;;;;5017106;28;20022;-66
2023/07/01 01:29:53;;;;;;;11.32;2.72;;;20.40;99.90;;;;;;5014806;28;20461;-66
2023/07/01 01:32:19;;;;;;;7.05;2.70;;;20.30;99.90;;;;;;5022397;28;20032;-66
2023/07/01 01:34:45;;;;;;;13.80;3.00;;;20.20;99.90;;;;;;5018357;28;20535;-69
2023/07/01 01:37:29;;;;;;;7.30;3.10;;;20.20;99.90;;;;;;5017837;28;20036;-68
2023/07/01 01:40:01;;;;;;;9.30;2.85;;;20.30;99.90;;;;;;5017952;28;20030;-65
2023/07/01 01:42:31;;;;;;;3.20;2.40;;;20.10;99.90;;;;;;5018460;28;20021;-67
2023/07/01 01:44:58;;;;;;;5.47;2.60;;;20.20;99.90;;;;;;5016598;28;20117;-68
2023/07/01 01:47:28;;;;;;;4.57;2.25;;;20.20;99.90;;;;;;5019048;28;20074;-66
2023/07/01 01:49:57;;;;;;;5.13;2.60;;;20.20;99.90;;;;;;5014005;28;20026;-67
2023/07/01 01:52:24;;;;;;;8.95;3.08;;;20.20;99.90;;;;;;5017392;28;20470;-68
2023/07/01 01:54:53;;;;;;;7.50;3.25;;;20.40;99.90;;;;;;5018185;28;20030;-65
2023/07/01 01:57:20;;;;;;;6.18;2.72;;;20.30;99.90;;;;;;5017877;28;20233;-73
2023/07/01 01:59:46;;;;;;;7.28;2.88;;;20.30;99.90;;;;;;5016714;28;20530;-67
2023/07/01 02:02:12;;;;;;;4.20;2.58;;;20.40;99.90;;;;;;5017912;28;20562;-71
2023/07/01 02:04:38;;;;;;;5.25;2.83;;;20.40;99.90;;;;;;5014604;28;20030;-69
2023/07/01 02:07:04;;;;;;;5.65;2.60;;;20.40;99.90;;;;;;5017216;28;20500;-71
2023/07/01 02:09:30;;;;;;;4.22;3.55;;;20.40;99.90;;;;;;5020882;28;20034;-68
2023/07/01 02:11:56;;;;;;;5.85;2.78;;;20.30;99.90;;;;;;5018410;28;20028;-66
2023/07/01 02:14:22;;;;;;;4.03;2.72;;;20.40;99.90;;;;;;5014057;28;20080;-72
2023/07/01 02:16:52;;;;;;;4.25;2.80;;;20.40;99.90;;;;;;5021566;28;20457;-73
2023/07/01 02:19:18;;;;;;;5.97;3.38;;;20.30;99.90;;;;;;5023566;28;20022;-71
2023/07/01 02:21:43;;;;;;;6.63;2.70;;;20.30;99.90;;;;;;5020434;28;20036;-67
2023/07/01 02:24:09;;;;;;;6.93;3.47;;;20.20;99.90;;;;;;5021188;28;20022;-67
2023/07/01 02:26:35;;;;;;;6.65;3.42;;;20.10;99.90;;;;;;5020779;28;20071;-73
2023/07/01 02:29:01;;;;;;;5.00;2.95;;;20.20;99.90;;;;;;5021494;28;20159;-72
2023/07/01 02:31:27;;;;;;;4.90;2.60;;;20.30;99.90;;;;;;5025849;28;20070;-72
2023/07/01 02:34:00;;;;;;;5.18;3.00;;;20.20;99.90;;;;;;5022903;28;20498;-66
2023/07/01 02:36:26;;;;;;;5.43;3.03;;;20.20;99.90;;;;;;5021815;28;20772;-70
2023/07/01 02:38:51;;;;;;;4.15;2.85;;;20.20;99.90;;;;;;5020551;28;20086;-67
2023/07/01 02:41:17;;;;;;;4.47;2.80;;;20.20;99.90;;;;;;5021321;28;20494;-69
2023/07/01 02:43:43;;;;;;;5.65;3.33;;;20.10;99.90;;;;;;5021726;28;20478;-68
2023/07/01 02:46:08;;;;;;;5.45;2.90;;;20.10;99.90;;;;;;5021224;28;20018;-72
2023/07/01 02:48:34;;;;;;;3.70;2.95;;;20.10;99.90;;;;;;5021245;28;20029;-72
2023/07/01 02:51:00;;;;;;;5.47;3.03;;;20.10;99.90;;;;;;5015911;28;20022;-73
2023/07/01 02:53:25;;;;;;;5.75;2.80;;;20.10;99.90;;;;;;5020378;28;20520;-68
2023/07/01 02:55:51;;;;;;;12.75;3.55;;;20.20;99.90;;;;;;5020488;28;20038;-66
2023/07/01 02:58:19;;;;;;;11.73;3.70;;;20.10;99.90;;;;;;5023611;28;20382;-68
2023/07/01 03:00:45;;;;;;;8.82;3.20;;;20.10;99.90;;;;;;5022155;28;20090;-66
2023/07/01 03:03:11;;;;;;;2.88;2.50;;;20.10;99.90;;;;;;5016316;28;20501;-70
2023/07/01 03:05:37;;;;;;;5.55;2.50;;;20.00;99.90;;;;;;5020114;28;20045;-70
2023/07/01 03:08:06;;;;;;;5.93;2.78;;;19.90;99.90;;;;;;5018271;28;20122;-71
2023/07/01 03:10:35;;;;;;;9.63;2.88;;;19.90;99.90;;;;;;5023570;28;20014;-71
2023/07/01 03:13:01;;;;;;;5.53;2.92;;;19.90;99.90;;;;;;5019300;28;20044;-73
2023/07/01 03:15:27;;;;;;;5.38;2.63;;;19.80;99.90;;;;;;5022079;28;20034;-71
2023/07/01 03:17:53;;;;;;;6.90;3.38;;;19.70;99.90;;;;;;5019985;28;20017;-66
2023/07/01 03:20:24;;;;;;;6.03;3.20;;;19.70;99.90;;;;;;5020126;28;20025;-66
2023/07/01 03:22:50;;;;;;;6.10;3.50;;;19.70;99.90;;;;;;5020927;28;20036;-69
2023/07/01 03:25:16;;;;;;;4.68;2.83;;;19.60;99.90;;;;;;5022772;28;20257;-68
2023/07/01 03:27:43;;;;;;;5.88;3.33;;;19.70;99.90;;;;;;5018742;28;20073;-68
2023/07/01 03:30:13;;;;;;;7.35;3.38;;;19.50;99.90;;;;;;5020899;28;20010;-68
2023/07/01 03:32:43;;;;;;;3.60;3.25;;;19.40;99.90;;;;;;5012934;28;20401;-73
2023/07/01 03:35:11;;;;;;;3.88;2.65;;;19.40;99.90;;;;;;5020685;28;20087;-68
2023/07/01 03:37:38;;;;;;;6.07;3.50;;;19.30;99.90;;;;;;5020980;28;20054;-73
2023/07/01 03:40:05;;;;;;;5.35;3.38;;;19.30;99.90;;;;;;5018849;28;20048;-71
2023/07/01 03:42:31;;;;;;;5.53;3.50;;;19.30;99.90;;;;;;5022358;28;20010;-71
2023/07/01 03:44:56;;;;;;;6.75;3.33;;;19.10;99.90;;;;;;5020403;28;20393;-73
2023/07/01 03:47:23;;;;;;;4.78;3.63;;;19.00;99.90;;;;;;5020456;28;20056;-69
2023/07/01 03:49:49;;;;;;;7.25;3.78;;;19.00;99.90;;;;;;5024567;28;20068;-71
2023/07/01 03:52:16;;;;;;;6.32;4.45;;;18.90;99.90;;;;;;5024480;28;20101;-80
2023/07/01 03:54:42;;;;;;;7.70;3.88;;;18.90;99.90;;;;;;5027365;28;20057;-68
2023/07/01 03:57:08;;;;;;;5.68;4.38;;;18.60;99.90;;;;;;5019182;28;20030;-73
2023/07/01 03:59:33;;;;;;;7.95;3.78;;;18.50;99.90;;;;;;5013861;28;20022;-68
2023/07/01 04:02:00;;;;;;;7.55;4.15;;;18.60;99.90;;;;;;5020458;28;20026;-66
2023/07/01 04:04:26;;;;;;;7.45;3.58;;;18.70;99.90;;;;;;5016977;28;20404;-76
2023/07/01 04:06:54;;;;;;;8.13;4.40;;;18.60;99.90;;;;;;5024655;28;20115;-68
2023/07/01 04:09:20;;;;;;;5.78;4.10;;;18.60;99.90;;;;;;5022543;28;20025;-68
2023/07/01 04:11:46;;;;;;;7.07;4.32;;;18.70;99.90;;;;;;5021336;28;20045;-73
2023/07/01 04:14:15;;;;;;;5.35;4.40;;;18.70;99.90;;;;;;5019343;28;20428;-82
2023/07/01 04:16:45;;;;;;;12.30;4.13;;;18.80;99.90;;;;;;5018845;28;20033;-65
2023/07/01 04:19:11;;;;;;;7.53;3.92;;;18.80;99.90;;;;;;5019684;28;20066;-71
2023/07/01 04:21:36;;;;;;;6.28;3.65;;;18.60;99.90;;;;;;5015845;28;20060;-68
2023/07/01 04:24:04;;;;;;;8.50;4.53;;;18.60;99.90;;;;;;5024014;28;20041;-68
2023/07/01 04:26:34;;;;;;;5.63;3.63;;;18.60;99.90;;;;;;5017478;28;20032;-69
2023/07/01 04:29:00;;;;;;;5.80;3.58;;;18.70;99.90;;;;;;5020691;28;20026;-65
2023/07/01 04:31:26;;;;;;;5.20;3.50;;;18.80;99.90;;;;;;5022098;28;20082;-66
2023/07/01 04:33:52;;;;;;;5.32;4.00;;;18.60;99.90;;;;;;5013482;28;20030;-66
2023/07/01 04:36:18;;;;;;;5.05;3.65;;;18.70;99.90;;;;;;5018539;28;20041;-68
2023/07/01 04:38:43;;;;;;;5.68;4.15;;;18.70;99.90;;;;;;5024644;28;20021;-69
2023/07/01 04:41:10;;;;;;;4.72;3.45;;;18.70;99.90;;;;;;5018480;28;20379;-84
2023/07/01 04:43:35;;;;;;;6.38;3.22;;;18.70;99.90;;;;;;5023307;28;20382;-75
2023/07/01 04:46:01;;;;;;;6.15;3.40;;;18.70;99.90;;;;;;5019212;28;20041;-67
2023/07/01 04:48:27;;;;;;;5.82;4.10;;;18.70;99.90;;;;;;5016758;28;20028;-66
2023/07/01 04:50:56;;;;;;;4.63;3.72;;;18.50;99.90;;;;;;5020269;28;20098;-68
2023/07/01 04:53:21;;;;;;;6.35;3.42;;;18.50;99.90;;;;;;5019257;28;20029;-66
2023/07/01 04:55:47;;;;;;;7.40;3.78;;;18.60;99.90;;;;;;5021033;28;20102;-67
2023/07/01 04:58:13;;;;;;;4.60;3.78;;;18.40;99.90;;;;;;5020435;28;20030;-69
2023/07/01 05:00:38;;;;;;;5.18;3.30;;;18.50;99.90;;;;;;5020035;28;20086;-67
2023/07/01 05:03:05;;;;;;;4.22;3.78;;;18.50;99.90;;;;;;5018456;28;20377;-67
2023/07/01 05:05:30;;;;;;;3.65;3.20;;;18.40;99.90;;;;;;5020641;28;20030;-66
2023/07/01 05:07:57;;;;;;;5.03;3.75;;;18.30;99.90;;;;;;5017706;28;20036;-66
2023/07/01 05:10:22;;;;;;;4.05;3.58;;;18.30;99.90;;;;;;5018822;28;20037;-66
2023/07/01 05:12:52;;;;;;;3.65;3.45;;;18.40;99.90;;;;;;5019204;28;20424;-68
2023/07/01 05:15:17;;;;;;;5.25;3.58;;;18.20;99.90;;;;;;5020066;28;20057;-71
2023/07/01 05:17:44;;;;;;;5.38;3.22;;;18.20;99.90;;;;;;5025005;28;20490;-69
2023/07/01 05:20:10;;;;;;;4.00;3.60;;;18.40;99.90;;;;;;5020232;28;20026;-69
2023/07/01 05:22:37;;;;;;;4.88;3.40;;;18.30;99.90;;;;;;5019071;28;20030;-69
2023/07/01 05:25:03;;;;;;;4.32;3.78;;;18.30;99.90;;;;;;5015964;28;20096;-67
2023/07/01 05:27:29;;;;;;;5.47;3.53;;;18.30;99.90;;;;;;5018334;28;20026;-69
2023/07/01 05:29:56;;;;;;;4.85;3.70;;;18.30;99.90;;;;;;5019791;28;20112;-68
2023/07/01 05:32:22;;;;;;;3.45;3.08;;;18.30;99.90;;;;;;5020851;28;20470;-65
2023/07/01 05:34:47;;;;;;;5.78;3.42;;;18.30;99.90;;;;;;5017111;28;20104;-74
2023/07/01 05:37:13;;;;;;;4.80;2.72;;;18.30;99.90;;;;;;5018305;28;20154;-77
2023/07/01 05:39:39;;;;;;;3.92;3.42;;;18.40;99.90;;;;;;5021415;28;20026;-65
2023/07/01 05:42:05;;;;;;;4.22;3.20;;;18.50;99.90;;;;;;5019532;28;20497;-65
2023/07/01 05:44:31;;;;;;;5.15;3.72;;;18.50;99.90;;;;;;5015836;28;20018;-69
2023/07/01 05:46:57;;;;;;;3.28;2.97;;;18.50;99.90;;;;;;5015564;28;20021;-65
2023/07/01 05:49:22;;;;;;;5.65;3.08;;;18.60;99.90;;;;;;5022050;28;20025;-73
2023/07/01 05:51:48;;;;;;;4.90;3.05;;;18.60;99.90;;;;;;5024913;28;20108;-66
2023/07/01 05:54:14;;;;;;;3.17;2.88;;;18.60;99.90;;;;;;5026308;28;20355;-65
2023/07/01 05:56:40;;;;;;;6.85;3.42;;;18.60;99.90;;;;;;5023398;28;20144;-65
2023/07/01 05:59:05;;;;;;;4.78;3.42;;;18.50;99.90;;;;;;5016471;28;20522;-67
2023/07/01 06:01:31;;;;;;;4.80;3.47;;;18.30;99.90;;;;;;5025439;28;20042;-66
2023/07/01 06:03:57;;;;;;;3.35;3.05;;;18.30;99.90;;;;;;5019676;28;20104;-76
2023/07/01 06:06:22;;;;;;;6.43;3.00;;;18.30;99.90;;;;;;5016373;28;20048;-66
2023/07/01 06:08:48;;;;;;;3.95;3.55;;;18.40;99.90;;;;;;5023816;28;20111;-75
2023/07/01 06:11:14;;;;;;;3.75;3.00;;;18.50;99.90;;;;;;5019388;28;20098;-67
2023/07/01 06:13:45;;;;;;;4.45;3.33;;;18.50;99.90;;;;;;5019404;28;20014;-68
2023/07/01 06:16:11;;;;;;;2.90;2.58;;;18.50;99.90;;;;;;5017262;28;20034;-68
2023/07/01 06:18:37;;;;;;;3.92;3.58;;;18.40;99.90;;;;;;5020534;28;20501;-64
2023/07/01 06:21:06;;;;;;;3.75;3.45;;;18.40;99.90;;;;;;5021451;28;20026;-69
2023/07/01 06:23:33;;;;;;;4.95;2.95;;;18.50;99.90;;;;;;5020701;28;20021;-67
2023/07/01 06:25:58;;;;;;;3.80;3.13;;;18.50;99.90;;;;;;5021583;28;20026;-68
2023/07/01 06:28:24;;;;;;;3.13;2.83;;;18.40;99.90;;;;;;5020269;28;20031;-65
2023/07/01 06:30:50;;;;;;;2.72;2.53;;;18.40;99.90;;;;;;5025570;28;20538;-66
2023/07/01 06:33:15;;;;;;;2.35;2.17;;;18.30;99.90;;;;;;5026016;28;20027;-64
2023/07/01 06:35:43;;;;;;;3.08;2.75;;;18.50;99.90;;;;;;5026395;28;21221;-73
2023/07/01 06:38:09;;;;;;;6.15;2.65;;;18.50;99.90;;;;;;5021025;28;20104;-68
2023/07/01 06:40:35;;;;;;;3.28;2.92;;;18.60;99.90;;;;;;5022103;28;20030;-67
2023/07/01 06:43:02;;;;;;;3.33;3.03;;;18.50;99.90;;;;;;5017738;28;20075;-75
2023/07/01 06:45:30;;;;;;;3.17;2.40;;;18.60;99.90;;;;;;5020942;28;20018;-65
2023/07/01 06:47:56;;;;;;;3.03;2.80;;;18.60;99.90;;;;;;5016882;28;20036;-67
2023/07/01 06:50:21;;;;;;;2.40;2.30;;;18.70;99.90;;;;;;5023577;28;20022;-67
2023/07/01 06:52:47;;;;;;;4.15;2.42;;;18.70;99.90;;;;;;5014606;28;20399;-68
2023/07/01 06:55:13;;;;;;;2.70;2.50;;;18.70;99.90;;;;;;5018433;28;20450;-66
2023/07/01 06:57:42;;;;;;;4.22;2.67;;;18.80;99.90;;;;;;5020058;28;20034;-69
2023/07/01 07:00:09;;;;;;;2.40;2.30;;;18.90;99.90;;;;;;5021585;28;20026;-72
2023/07/01 07:02:35;;;;;;;2.60;2.40;;;18.80;99.90;;;;;;5022495;28;20032;-74
2023/07/01 07:05:04;;;;;;;2.67;2.47;;;18.90;99.90;;;;;;5017230;28;20025;-68
2023/07/01 07:07:30;;;;;;;2.67;2.47;;;18.70;99.90;;;;;;5026942;28;20555;-66
2023/07/01 07:09:55;;;;;;;1.85;1.75;;;18.80;99.90;;;;;;5023264;28;20022;-70
2023/07/01 07:12:21;;;;;;;2.38;2.28;;;18.70;99.90;;;;;;5024633;28;20484;-71
2023/07/01 07:14:46;;;;;;;3.10;2.22;;;18.70;99.90;;;;;;5023137;28;20470;-67
2023/07/01 07:17:12;;;;;;;2.45;2.25;;;18.70;99.90;;;;;;5014494;28;20494;-65
2023/07/01 07:19:38;;;;;;;2.20;1.80;;;18.70;99.90;;;;;;5020707;28;20097;-71
2023/07/01 07:22:05;;;;;;;3.50;1.75;;;18.90;99.90;;;;;;5014214;28;20114;-66
2023/07/01 07:24:31;;;;;;;4.88;2.22;;;18.70;99.90;;;;;;5019907;28;20124;-72
2023/07/01 07:27:00;;;;;;;2.72;2.40;;;18.80;99.90;;;;;;5021475;28;20529;-66
2023/07/01 07:29:29;;;;;;;3.22;2.40;;;18.80;99.90;;;;;;5022093;28;20436;-65
2023/07/01 07:31:55;;;;;;;2.45;2.15;;;18.80;99.90;;;;;;5016288;28;20049;-66
2023/07/01 07:34:22;;;;;;;2.28;2.08;;;18.80;99.90;;;;;;5019222;28;20626;-68
2023/07/01 07:36:48;;;;;;;3.20;2.30;;;18.80;99.90;;;;;;5021085;28;20044;-67
2023/07/01 07:39:14;;;;;;;3.72;2.08;;;19.00;99.90;;;;;;5022427;28;20440;-69
2023/07/01 07:41:41;;;;;;;3.15;2.13;;;19.10;99.90;;;;;;5021356;28;20117;-66
2023/07/01 07:44:07;;;;;;;2.03;1.85;;;19.10;99.90;;;;;;5017087;28;20550;-66
2023/07/01 07:46:34;;;;;;;3.17;2.00;;;18.90;99.90;;;;;;5025532;28;20578;-66
2023/07/01 07:49:00;;;;;;;2.53;2.33;;;18.90;99.90;;;;;;5025104;28;20026;-66
2023/07/01 07:51:25;;;;;;;2.70;2.50;;;18.80;99.90;;;;;;5016160;28;20030;-66
2023/07/01 07:53:51;;;;;;;3.25;2.10;;;18.90;99.90;;;;;;5018832;28;20099;-66
2023/07/01 07:56:17;;;;;;;2.20;2.00;;;19.00;99.90;;;;;;5016472;28;20034;-68
2023/07/01 07:58:43;;;;;;;2.58;2.13;;;19.10;99.90;;;;;;5036320;28;20040;-69
2023/07/01 08:01:09;;;;;;;2.80;2.10;;;19.10;99.90;;;;;;5020104;28;20053;-65
2023/07/01 08:03:35;;;;;;;2.00;1.90;;;19.20;99.90;;;;;;5018474;28;20049;-67
2023/07/01 08:06:01;;;;;;;2.05;1.95;;;19.30;99.90;;;;;;5019364;28;20043;-71
2023/07/01 08:08:26;;;;;;;2.25;2.05;;;19.30;99.90;;;;;;5027536;28;20470;-70
2023/07/01 08:10:53;;;;;;;1.90;1.80;;;19.30;99.90;;;;;;5017094;28;20514;-68
2023/07/01 08:13:19;;;;;;;1.75;1.65;;;19.30;99.90;;;;;;5018677;28;20124;-76
2023/07/01 08:15:45;;;;;;;1.65;1.45;;;19.50;99.90;;;;;;5020797;28;20021;-66
2023/07/01 08:18:11;;;;;;;1.60;1.50;;;19.50;99.90;;;;;;5015161;28;20044;-69
2023/07/01 08:20:38;;;;;;;1.48;1.38;;;19.50;99.90;;;;;;5018466;28;20022;-72
2023/07/01 08:23:04;;;;;;;1.50;1.40;;;19.40;99.90;;;;;;5018742;28;20014;-66
2023/07/01 08:25:30;;;;;;;1.48;1.38;;;19.30;99.90;;;;;;5020316;28;20466;-66
2023/07/01 08:27:56;;;;;;;1.50;1.40;;;19.50;99.90;;;;;;5018207;28;20032;-71
2023/07/01 08:30:22;;;;;;;2.10;2.00;;;19.40;99.90;;;;;;5018668;28;20128;-73
2023/07/01 08:32:48;;;;;;;1.35;1.25;;;19.30;99.90;;;;;;5013600;28;20265;-66
2023/07/01 08:35:14;;;;;;;1.55;1.45;;;19.30;99.90;;;;;;5018976;28;20021;-65
2023/07/01 08:37:39;;;;;;;1.98;1.40;;;19.40;99.90;;;;;;5027121;28;20033;-65
2023/07/01 08:40:07;;;;;;;1.33;1.25;;;19.40;99.90;;;;;;5017606;28;20037;-64
2023/07/01 08:42:55;;;;;;;1.20;1.10;;;19.60;99.90;;;;;;5025533;28;20493;-70
2023/07/01 08:45:21;;;;;;;1.80;1.05;;;19.50;99.90;;;;;;5018366;28;20024;-69
2023/07/01 08:47:50;;;;;;;1.30;1.20;;;19.60;99.90;;;;;;5018769;28;20017;-66
2023/07/01 08:50:19;;;;;;;1.08;1.08;;;19.60;99.90;;;;;;5017463;28;20029;-66
2023/07/01 08:52:53;;;;;;;1.05;1.05;;;19.70;99.90;;;;;;5018153;28;20040;-72
2023/07/01 08:55:18;;;;;;;1.40;1.02;;;19.70;99.90;;;;;;5026150;28;20025;-68
2023/07/01 08:57:44;;;;;;;1.30;1.20;;;19.70;99.90;;;;;;5018640;28;20029;-68
2023/07/01 09:00:12;;;;;;;1.50;1.33;;;19.70;99.90;;;;;;5022024;28;20064;-66
2023/07/01 09:02:39;;;;;;;0.98;0.98;;;19.60;99.90;;;;;;5017968;28;20022;-67
2023/07/01 09:05:05;;;;;;;1.55;1.45;;;19.70;99.90;;;;;;5024631;28;20022;-69
2023/07/01 09:07:31;;;;;;;0.70;0.70;;;19.80;99.90;;;;;;5021807;28;20029;-77
2023/07/01 09:09:57;;;;;;;1.00;1.00;;;19.70;99.90;;;;;;5015346;28;20034;-70
2023/07/01 09:12:32;;;;;;;0.80;0.80;;;19.80;99.90;;;;;;5024485;28;20025;-71
2023/07/01 09:15:04;;;;;;;1.00;0.95;;;19.80;99.90;;;;;;5019816;28;20029;-74
2023/07/01 09:17:36;;;;;;;1.15;1.00;;;19.80;99.90;;;;;;5014827;28;20065;-72
2023/07/01 09:20:05;;;;;;;1.00;1.00;;;20.00;99.90;;;;;;5016017;28;20022;-66
2023/07/01 09:22:31;;;;;;;1.10;1.00;;;19.90;99.90;;;;;;5016302;28;20112;-68
2023/07/01 09:24:58;;;;;;;1.15;0.90;;;19.90;99.90;;;;;;5014072;28;20461;-72
2023/07/01 09:27:25;;;;;;;0.80;0.80;;;19.90;99.90;;;;;;5011441;28;20014;-70
2023/07/01 09:29:54;;;;;;;0.68;0.68;;;19.90;99.90;;;;;;5024419;28;20044;-75
2023/07/01 09:32:29;;;;;;;0.80;0.80;;;19.90;99.90;;;;;;5019808;28;20031;-68
2023/07/01 09:34:57;;;;;;;1.38;1.00;;;19.80;99.90;;;;;;5018413;28;20067;-67
2023/07/01 09:37:24;;;;;;;1.20;1.15;;;19.90;99.90;;;;;;5015617;28;20038;-70
2023/07/01 09:39:49;;;;;;;1.15;0.80;;;19.90;99.90;;;;;;5016995;28;20030;-74
2023/07/01 09:42:18;;;;;;;1.17;1.02;;;20.10;99.90;;;;;;5014386;28;20109;-70
2023/07/01 09:45:07;;;;;;;1.88;1.30;;;20.00;99.90;;;;;;5020782;28;20014;-75
2023/07/01 09:47:34;;;;;;;1.25;0.90;;;20.00;99.90;;;;;;5017518;28;20087;-74
2023/07/01 09:50:02;;;;;;;1.20;1.10;;;20.20;99.90;;;;;;5019037;28;20018;-72
2023/07/01 09:52:34;;;;;;;1.65;1.27;;;20.20;99.90;;;;;;5021065;28;20026;-74
2023/07/01 09:55:01;;;;;;;;;;;20.30;99.90;;;;;;5023529;28;20069;-74
2023/07/01 09:57:26;;;;;;;1.55;1.20;;;20.30;99.90;;;;;;5014729;28;19953;-78
2023/07/01 09:59:53;;;;;;;1.73;1.33;;;20.40;99.90;;;;;;5017474;28;20029;-78
2023/07/01 10:02:19;;;;;;;2.08;1.33;;;20.50;99.90;;;;;;5022011;28;20102;-75
2023/07/01 10:04:44;;;;;;;1.30;1.20;;;20.50;99.90;;;;;;5024159;28;20434;-73
2023/07/01 10:07:10;;;;;;;1.58;1.48;;;20.60;99.90;;;;;;5017697;28;20054;-67
2023/07/01 10:09:42;;;;;;;4.05;1.60;;;20.60;99.90;;;;;;5025777;28;20490;-68
2023/07/01 10:12:08;;;;;;;1.45;1.30;;;20.60;99.90;;;;;;5017199;28;20033;-68
2023/07/01 10:14:35;;;;;;;1.20;1.15;;;20.50;99.90;;;;;;5016568;28;20549;-68
2023/07/01 10:17:01;;;;;;;1.20;1.20;;;20.70;99.90;;;;;;5015413;28;20073;-67
2023/07/01 10:19:32;;;;;;;1.48;1.17;;;20.60;99.90;;;;;;5014707;28;20029;-66
2023/07/01 10:22:23;;;;;;;1.15;1.15;;;20.70;99.90;;;;;;5017781;28;20022;-67
2023/07/01 10:25:03;;;;;;;2.88;1.30;;;20.70;99.90;;;;;;5023155;28;20498;-73
2023/07/01 10:27:43;;;;;;;2.80;1.10;;;20.70;99.90;;;;;;5022060;28;20481;-65
2023/07/01 10:30:13;;;;;;;2.45;1.60;;;20.80;99.90;;;;;;5015969;28;20022;-69
2023/07/01 10:32:39;;;;;;;1.83;1.73;;;20.70;99.90;;;;;;5019381;28;20057;-66
2023/07/01 10:35:05;;;;;;;2.25;1.85;;;20.70;99.90;;;;;;5024762;28;20090;-71
2023/07/01 10:37:32;;;;;;;2.13;2.03;;;20.70;99.90;;;;;;5029185;28;20041;-66
2023/07/01 10:40:00;;;;;;;4.20;1.77;;;20.80;99.90;;;;;;5020339;28;20074;-66
2023/07/01 10:42:33;;;;;;;2.40;2.08;;;20.80;99.90;;;;;;5021824;28;20036;-67
2023/07/01 10:45:11;;;;;;;2.88;2.67;;;20.80;99.90;;;;;;5014899;27;20056;-66
2023/07/01 10:47:44;;;;;;;2.65;2.45;;;20.90;99.90;;;;;;5018696;28;20052;-66
2023/07/01 10:50:17;;;;;;;2.63;2.30;;;20.90;99.90;;;;;;5017456;27;20029;-68
2023/07/01 10:53:10;;;;;;;3.00;2.80;;;21.00;99.90;;;;;;5018990;28;20375;-70
2023/07/01 10:55:44;;;;;;;3.58;3.28;;;21.00;99.90;;;;;;5019269;28;20056;-67
2023/07/01 10:58:25;;;;;;;3.90;3.53;;;21.10;99.90;;;;;;5022513;28;20086;-67
2023/07/01 11:00:53;;;;;;;3.67;3.38;;;21.10;99.90;;;;;;5018380;28;20025;-67
2023/07/01 11:06:01;;;;;;;3.85;3.60;;;21.30;99.90;;;;;;5023939;28;20030;-66
2023/07/01 11:08:28;;;;;;;3.85;3.63;;;21.30;99.90;;;;;;5016338;28;20037;-66
2023/07/01 11:10:54;;;;;;;3.95;3.65;;;21.30;99.90;;;;;;5021944;28;20121;-66
2023/07/01 11:13:20;;;;;;;4.25;3.85;;;21.30;99.90;;;;;;5019989;28;20495;-69
2023/07/01 11:16:04;;;;;;;4.30;3.97;;;21.40;99.90;;;;;;5021835;28;20114;-67
2023/07/01 11:18:41;;;;;;;4.53;4.13;;;21.40;99.90;;;;;;5026790;28;20177;-66
2023/07/01 11:21:10;;;;;;;4.60;4.25;;;21.40;99.90;;;;;;5026198;28;20130;-69
2023/07/01 11:23:36;;;;;;;4.32;4.00;;;21.50;99.90;;;;;;5017954;28;20025;-67
2023/07/01 11:26:02;;;;;;;4.43;4.03;;;21.60;99.90;;;;;;5015234;28;20021;-70
2023/07/01 11:28:35;;;;;;;5.13;4.63;;;21.70;99.90;;;;;;5016969;27;20538;-67
2023/07/01 11:31:17;;;;;;;5.13;4.70;;;21.80;99.90;;;;;;5021030;28;20382;-66
2023/07/01 11:33:52;;;;;;;5.32;4.82;;;22.10;99.90;;;;;;5020286;28;20128;-66
2023/07/01 11:36:36;;;;;;;5.93;5.13;;;22.20;99.90;;;;;;5015238;28;20521;-66
2023/07/01 11:39:19;;;;;;;5.45;4.95;;;22.40;99.90;;;;;;5015593;28;20469;-67
2023/07/01 11:42:02;;;;;;;5.40;4.90;;;22.40;99.90;;;;;;5020858;28;20021;-67
2023/07/01 11:44:28;;;;;;;;;;;22.60;99.90;;;;;;5025459;28;20022;-72
2023/07/01 11:46:55;;;;;;;4.60;4.20;;;22.80;99.90;;;;;;5015213;28;19913;-68
2023/07/01 11:49:21;;;;;;;4.97;4.55;;;23.20;99.90;;;;;;5015183;28;20079;-67
2023/07/01 11:51:54;;;;;;;5.25;4.85;;;23.30;99.90;;;;;;5020213;28;20026;-69
2023/07/01 11:54:24;;;;;;;4.55;4.15;;;23.40;99.90;;;;;;5019125;28;20033;-67
2023/07/01 11:57:09;;;;;;;6.18;4.43;;;23.40;99.90;;;;;;5017571;28;20098;-70
2023/07/01 11:59:37;;;;;;;5.35;4.85;;;23.30;99.90;;;;;;5019347;28;20057;-68
2023/07/01 12:02:03;;;;;;;4.03;3.72;;;23.20;99.90;;;;;;5018575;28;20026;-68
2023/07/01 12:04:29;;;;;;;5.25;4.75;;;23.20;99.90;;;;;;5015991;28;20029;-68
2023/07/01 12:07:17;;;;;;;4.68;3.80;;;23.10;99.90;;;;;;5022919;28;20037;-67
2023/07/01 12:09:45;;;;;;;4.10;3.80;;;23.00;99.90;;;;;;5014058;28;20092;-66
2023/07/01 12:12:14;;;;;;;4.20;3.80;;;23.00;99.90;;;;;;5019119;28;20513;-70
2023/07/01 12:14:41;;;;;;;3.95;3.60;;;22.80;99.90;;;;;;5025922;28;20086;-82
2023/07/01 12:17:06;;;;;;;3.58;3.28;;;22.60;99.90;;;;;;5027178;28;20385;-68
2023/07/01 12:19:32;;;;;;;3.50;3.20;;;22.50;99.90;;;;;;5026098;28;20018;-67
2023/07/01 12:22:00;;;;;;;2.55;2.35;;;22.50;99.90;;;;;;5019158;28;20095;-82
2023/07/01 12:24:30;;;;;;;3.03;2.83;;;22.60;99.90;;;;;;5018612;28;20489;-71
2023/07/01 12:26:58;;;;;;;2.60;2.40;;;22.70;99.90;;;;;;5020086;28;20037;-75
2023/07/01 12:29:25;;;;;;;3.40;3.10;;;23.20;99.90;;;;;;5018270;28;20017;-67
2023/07/01 12:31:53;;;;;;;3.83;2.97;;;23.50;99.90;;;;;;5022636;28;20038;-66
2023/07/01 12:34:22;;;;;;;3.38;2.67;;;23.70;99.90;;;;;;5024992;28;20049;-69
2023/07/01 12:36:48;;;;;;;3.40;3.10;;;23.80;99.90;;;;;;5016866;28;20041;-70
2023/07/01 12:39:17;;;;;;;4.68;2.92;;;23.90;99.90;;;;;;5016879;28;20025;-68
2023/07/01 12:41:47;;;;;;;3.95;3.22;;;24.00;99.90;;;;;;5019229;28;20022;-67
2023/07/01 12:44:13;;;;;;;6.82;3.40;;;23.80;99.90;;;;;;5020351;28;20036;-67
2023/07/01 12:46:43;;;;;;;2.90;2.60;;;23.70;99.90;;;;;;5014888;28;20033;-71
2023/07/01 12:49:12;;;;;;;3.60;3.30;;;23.70;99.90;;;;;;5019864;28;20034;-67
2023/07/01 12:51:40;;;;;;;3.30;3.00;;;23.60;99.90;;;;;;5026193;28;20078;-67
2023/07/01 12:54:05;;;;;;;5.18;2.88;;;23.70;99.90;;;;;;5015796;28;20036;-72